Time;durP1;ratioP1;P1;durP2;ratioP2;P2;SDS_P1;SDS_P2;PMS_P1;PMS_P2;Temp;Humidity;BMP_temperature;BMP_pressure;BME280_temperature;BME280_humidity;BME280_pressure;Samples;Min_cycle;Max_cycle;Signal;HPM_P1;HPM_P2
2022/02/08 00:00:01;;;;;;;1.25;0.73;;;;;;;5.72;68.63;97948.81;6145684;22;20003;-79
2022/02/08 00:02:29;;;;;;;0.00;0.00;;;;;;;5.72;68.40;97958.63;6146402;22;20003;-79
2022/02/08 00:04:54;;;;;;;0.00;0.00;;;;;;;5.71;68.09;97949.09;6146472;22;20007;-79
2022/02/08 00:07:20;;;;;;;0.00;0.00;;;;;;;5.66;67.13;97935.84;6144968;22;20073;-80
2022/02/08 00:10:09;;;;;;;0.13;0.13;;;;;;;5.68;66.65;97957.59;6164398;22;20008;-82
2022/02/08 00:12:35;;;;;;;0.00;0.00;;;;;;;5.68;67.45;97957.59;6149144;22;20372;-79
2022/02/08 00:15:01;;;;;;;0.00;0.00;;;;;;;5.69;65.96;97961.81;6146822;22;20003;-79
2022/02/08 00:17:27;;;;;;;0.30;0.30;;;;;;;5.67;66.65;97951.47;6152872;22;20082;-79
2022/02/08 00:19:52;;;;;;;0.00;0.00;;;;;;;5.70;65.97;97953.59;6144347;22;20031;-77
2022/02/08 00:22:18;;;;;;;0.03;0.03;;;;;;;5.74;66.64;97964.47;6144179;22;20025;-78
2022/02/08 00:24:43;;;;;;;0.00;0.00;;;;;;;5.77;66.09;97961.25;6144696;22;20011;-80
2022/02/08 00:27:09;;;;;;;0.00;0.00;;;;;;;5.78;65.37;97954.91;6144273;22;20059;-79
2022/02/08 00:29:34;;;;;;;0.00;0.00;;;;;;;5.74;64.98;97959.94;6144854;22;20011;-79
2022/02/08 00:32:00;;;;;;;0.00;0.00;;;;;;;5.74;65.25;97957.28;6148049;22;20011;-79
2022/02/08 00:35:00;;;;;;;0.00;0.00;;;;;;;5.75;65.39;97958.09;6152445;22;20070;-82
2022/02/08 00:37:25;;;;;;;0.00;0.00;;;;;;;5.77;65.20;97962.06;6149160;22;20074;-80
2022/02/08 00:43:13;;;;;;;0.00;0.00;;;;;;;5.79;64.63;97975.06;6275305;22;20031;-79
2022/02/08 00:58:22;;;;;;;0.28;0.28;;;;;;;5.85;63.41;97973.19;6276511;22;20372;-78
2022/02/08 01:00:47;;;;;;;0.00;0.00;;;;;;;5.80;62.24;97949.31;6248656;22;20039;-77
2022/02/08 01:03:13;;;;;;;0.00;0.00;;;;;;;5.84;63.24;97967.06;6248760;22;20669;-78
2022/02/08 01:05:45;;;;;;;0.00;0.00;;;;;;;5.84;62.77;97967.06;6249265;22;20433;-79
2022/02/08 01:08:10;;;;;;;0.00;0.00;;;;;;;5.82;62.44;97974.50;6249274;22;20034;-80
2022/02/08 01:13:12;;;;;;;0.00;0.00;;;;;;;5.83;62.42;97944.25;6256093;22;20024;-80
2022/02/08 01:15:37;;;;;;;0.00;0.00;;;;;;;5.83;62.28;97960.19;6148461;22;20018;-81
2022/02/08 01:18:04;;;;;;;0.00;0.00;;;;;;;5.84;62.09;97956.47;6146719;22;19999;-79
2022/02/08 01:20:35;;;;;;;0.00;0.00;;;;;;;5.86;61.79;97958.84;6145855;22;20012;-80
2022/02/08 01:23:06;;;;;;;0.00;0.00;;;;;;;5.85;61.69;97957.28;6149747;22;19999;-77
2022/02/08 01:25:38;;;;;;;0.00;0.00;;;;;;;5.85;61.00;97960.72;6146448;22;20003;-79
2022/02/08 01:28:19;;;;;;;0.80;0.38;;;;;;;5.84;61.18;97961.78;6155611;22;20026;-81
2022/02/08 01:33:38;;;;;;;0.00;0.00;;;;;;;5.83;60.97;97954.88;6277459;22;20027;-79
2022/02/08 01:38:38;;;;;;;0.20;0.20;;;;;;;5.84;61.56;97968.94;6276602;22;20010;-82
2022/02/08 01:46:27;;;;;;;0.00;0.00;;;;;;;5.85;61.12;97978.50;6284747;22;20007;-80
2022/02/08 01:48:59;;;;;;;0.00;0.00;;;;;;;5.85;60.79;97978.50;6147474;22;20000;-80
2022/02/08 01:51:24;;;;;;;0.00;0.00;;;;;;;5.83;60.64;97984.06;6147418;22;20344;-81
2022/02/08 01:53:50;;;;;;;0.00;0.00;;;;;;;5.85;60.21;97984.59;6148853;22;20086;-81
2022/02/08 01:56:16;;;;;;;0.00;0.00;;;;;;;5.84;60.54;97987.53;6149997;22;20015;-80
2022/02/08 01:58:42;;;;;;;0.20;0.20;;;;;;;5.81;61.21;97983.56;6282075;22;20007;-79
2022/02/08 02:01:43;;;;;;;0.00;0.00;;;;;;;5.79;60.08;97993.63;6166847;22;20007;-83
2022/02/08 02:04:13;;;;;;;0.00;0.00;;;;;;;5.79;60.87;97988.31;6154684;22;19987;-81
2022/02/08 02:09:27;;;;;;;0.35;0.35;;;;;;;5.72;59.66;97990.47;6284687;22;20463;-79
2022/02/08 02:11:54;;;;;;;0.00;0.00;;;;;;;5.71;59.90;97983.56;6153293;22;20065;-81
2022/02/08 02:20:04;;;;;;;0.00;0.00;;;;;;;5.70;60.04;97987.28;6237116;22;20016;-81
2022/02/08 02:22:29;;;;;;;0.47;0.47;;;;;;;5.66;60.17;97997.63;6236193;22;20011;-78
2022/02/08 02:24:56;;;;;;;0.00;0.00;;;;;;;5.67;60.30;97987.84;6261903;22;20006;-79
2022/02/08 02:28:17;;;;;;;0.00;0.00;;;;;;;5.63;60.46;97984.94;6262002;22;20004;-83
2022/02/08 02:30:42;;;;;;;0.00;0.00;;;;;;;5.63;60.38;97995.53;6238520;22;20023;-81
2022/02/08 02:33:11;;;;;;;0.00;0.00;;;;;;;5.63;60.64;97994.72;6239367;22;20357;-82
2022/02/08 02:35:38;;;;;;;0.20;0.20;;;;;;;5.61;60.70;97995.81;6263134;22;20086;-80
2022/02/08 02:38:05;;;;;;;0.00;0.00;;;;;;;5.63;59.73;98000.03;6228904;22;20011;-79
2022/02/08 02:40:36;;;;;;;0.13;0.13;;;;;;;5.62;59.92;98007.19;6253109;22;20004;-80
2022/02/08 02:43:09;;;;;;;0.00;0.00;;;;;;;5.60;60.60;98011.97;6253805;22;20004;-80
2022/02/08 02:45:55;;;;;;;0.00;0.00;;;;;;;5.58;60.40;98017.56;6288901;22;20026;-80
2022/02/08 02:48:40;;;;;;;0.38;0.38;;;;;;;5.60;60.00;98022.59;6267949;22;19987;-80
2022/02/08 02:51:33;;;;;;;0.00;0.00;;;;;;;5.61;60.03;98025.00;6254968;22;20060;-80
2022/02/08 02:54:19;;;;;;;0.13;0.13;;;;;;;5.61;59.66;98021.53;6280357;22;19995;-80
2022/02/08 02:57:40;;;;;;;0.00;0.00;;;;;;;5.61;60.10;98030.28;6252981;22;20006;-80
2022/02/08 03:00:26;;;;;;;0.20;0.20;;;;;;;5.64;59.65;98028.16;6280682;22;20007;-79
2022/02/08 03:03:27;;;;;;;0.00;0.00;;;;;;;5.61;60.08;98035.59;6237201;22;20560;-81
2022/02/08 03:21:46;;;;;;;0.00;0.00;;;;;;;5.49;60.02;98079.34;6110316;23;20018;-80
2022/02/08 03:24:12;;;;;;;0.00;0.00;;;;;;;5.43;60.19;98076.72;6091519;23;20048;-77
2022/02/08 03:27:15;;;;;;;0.00;0.00;;;;;;;5.48;59.67;98072.47;6072823;23;20329;-80
2022/02/08 03:29:45;;;;;;;0.00;0.00;;;;;;;5.50;59.88;98067.69;6070244;23;20019;-81
2022/02/08 03:32:44;;;;;;;0.00;0.00;;;;;;;5.49;59.76;98053.63;6078260;23;20018;-82
2022/02/08 03:35:11;;;;;;;0.00;0.00;;;;;;;5.48;58.89;98054.72;6069394;23;20006;-80
2022/02/08 03:37:59;;;;;;;0.17;0.17;;;;;;;5.51;59.27;98035.59;6107365;23;20033;-81
2022/02/08 03:40:51;;;;;;;0.05;0.05;;;;;;;5.54;58.78;98044.88;6126750;22;20010;-81
2022/02/08 03:43:37;;;;;;;0.00;0.00;;;;;;;5.48;58.73;98049.41;6289465;22;20479;-82
2022/02/08 03:46:06;;;;;;;0.00;0.00;;;;;;;5.50;58.83;98062.38;6131254;23;20386;-81
2022/02/08 03:48:37;;;;;;;0.40;0.40;;;;;;;5.51;59.16;98071.94;6148893;22;20025;-82
2022/02/08 03:55:55;;;;;;;0.00;0.00;;;;;;;5.44;59.07;98104.03;6125256;22;20025;-82
2022/02/08 03:59:04;;;;;;;0.00;0.00;;;;;;;5.35;59.26;98119.66;6086168;22;20024;-80
2022/02/08 04:07:40;;;;;;;0.00;0.00;;;;;;;5.28;59.37;98143.78;6257687;22;20077;-80
2022/02/08 04:10:20;;;;;;;0.00;0.00;;;;;;;5.33;59.45;98140.34;6249010;22;20007;-81
2022/02/08 04:44:34;;;;;;;0.00;0.00;;;;;;;5.42;60.52;98249.31;6251907;23;20011;-79
2022/02/08 04:49:58;;;;;;;0.00;0.00;;;;;;;5.40;61.03;98268.16;6251081;23;20027;-79
2022/02/08 04:52:25;;;;;;;0.00;0.00;;;;;;;5.44;62.10;98284.34;6219027;23;20046;-79
2022/02/08 04:55:01;;;;;;;0.20;0.20;;;;;;;5.42;62.25;98302.34;6119971;23;20007;-79
2022/02/08 05:00:38;;;;;;;0.00;0.00;;;;;;;5.17;65.67;98303.84;6200656;23;20073;-79
2022/02/08 05:34:34;;;;;;;0.00;0.00;;;;;;;4.02;74.45;98388.03;6248794;23;20038;-79
2022/02/08 05:42:49;;;;;;;0.00;0.00;;;;;;;3.87;74.96;98438.13;6251413;23;20015;-79
2022/02/08 05:45:08;;;;;;;0.05;0.05;;;;;;;3.84;75.59;98423.56;6249760;23;20010;-79
2022/02/08 05:47:40;;;;;;;0.65;0.65;;;;;;;3.83;75.63;98427.25;6121368;23;20004;-79
2022/02/08 05:50:22;;;;;;;0.00;0.00;;;;;;;3.84;75.64;98439.41;6118288;23;20012;-79
2022/02/08 05:53:04;;;;;;;1.42;1.35;;;;;;;3.88;75.65;98464.31;6120080;23;20455;-78
2022/02/08 05:55:31;;;;;;;0.00;0.00;;;;;;;3.79;75.95;98460.53;6118288;23;20008;-78
2022/02/08 05:57:57;;;;;;;0.70;0.63;;;;;;;3.77;76.28;98471.34;6120612;23;20018;-78
2022/02/08 06:00:26;;;;;;;0.00;0.00;;;;;;;3.73;76.28;98469.44;6116409;23;20004;-78
2022/02/08 06:02:54;;;;;;;0.00;0.00;;;;;;;3.63;76.34;98472.75;6120024;23;20086;-80
2022/02/08 06:05:20;;;;;;;0.00;0.00;;;;;;;3.60;76.90;98465.31;6116663;23;20031;-80
2022/02/08 06:07:46;;;;;;;0.00;0.00;;;;;;;3.59;76.99;98476.91;6116630;23;20083;-79
2022/02/08 06:10:11;;;;;;;0.00;0.00;;;;;;;3.49;77.37;98482.84;6116549;23;20024;-79
2022/02/08 06:12:43;;;;;;;0.03;0.03;;;;;;;3.45;77.33;98487.03;6119057;23;20064;-79
2022/02/08 06:15:11;;;;;;;0.00;0.00;;;;;;;3.37;78.22;98480.34;6246357;23;20008;-79
2022/02/08 06:17:36;;;;;;;0.00;0.00;;;;;;;3.30;78.41;98485.00;6115771;23;20031;-79
2022/02/08 06:20:03;;;;;;;0.00;0.00;;;;;;;3.26;78.64;98483.84;6116429;23;20039;-79
2022/02/08 06:22:28;;;;;;;0.00;0.00;;;;;;;3.23;78.82;98494.91;6117277;23;20023;-79
2022/02/08 06:24:55;;;;;;;0.00;0.00;;;;;;;3.19;79.06;98481.38;6117898;23;20004;-79
2022/02/08 06:27:28;;;;;;;0.00;0.00;;;;;;;3.15;79.43;98481.06;6115462;23;20499;-79
2022/02/08 06:29:53;;;;;;;0.00;0.00;;;;;;;3.24;79.51;98476.19;6115658;23;20008;-79
2022/02/08 06:32:19;;;;;;;0.00;0.00;;;;;;;3.20;79.48;98475.06;6115066;23;20103;-79
2022/02/08 06:34:44;;;;;;;0.00;0.00;;;;;;;3.10;79.93;98482.81;6115967;23;20012;-79
2022/02/08 06:37:13;;;;;;;0.00;0.00;;;;;;;3.06;80.01;98489.63;6114680;23;20005;-79
2022/02/08 06:39:38;;;;;;;;;;;;;;;3.19;80.09;98505.16;6115729;23;20087;-79
2022/02/08 06:42:04;;;;;;;0.00;0.00;;;;;;;3.08;80.39;98514.00;6114107;23;19935;-79
2022/02/08 06:44:30;;;;;;;0.00;0.00;;;;;;;3.06;80.44;98524.78;6114903;23;20008;-79
2022/02/08 06:46:55;;;;;;;0.00;0.00;;;;;;;3.06;80.99;98526.63;6116581;23;20074;-79
2022/02/08 06:49:21;;;;;;;0.00;0.00;;;;;;;3.06;81.09;98529.28;6116296;23;20098;-79
2022/02/08 06:51:46;;;;;;;0.00;0.00;;;;;;;3.02;80.75;98532.38;6115097;23;20425;-79
2022/02/08 06:54:11;;;;;;;0.00;0.00;;;;;;;3.02;80.95;98545.59;6117439;23;20031;-79
2022/02/08 06:56:38;;;;;;;0.00;0.00;;;;;;;3.06;80.37;98542.47;6118700;23;20545;-79
2022/02/08 06:59:07;;;;;;;0.00;0.00;;;;;;;3.04;81.00;98550.66;6115113;23;20095;-79
2022/02/08 07:01:33;;;;;;;0.00;0.00;;;;;;;3.03;80.84;98543.75;6116160;23;20426;-79
2022/02/08 07:04:05;;;;;;;0.03;0.03;;;;;;;3.02;80.76;98542.16;6117588;23;20383;-79
2022/02/08 07:06:30;;;;;;;0.05;0.05;;;;;;;2.99;80.85;98540.78;6117104;23;20068;-79
2022/02/08 07:08:56;;;;;;;0.00;0.00;;;;;;;3.02;81.00;98532.38;6118594;23;20386;-79
2022/02/08 07:11:22;;;;;;;0.00;0.00;;;;;;;2.98;81.33;98528.63;6116720;23;20008;-79
2022/02/08 07:13:49;;;;;;;0.00;0.00;;;;;;;2.89;81.09;98524.75;6117427;23;20004;-79
2022/02/08 07:16:16;;;;;;;0.00;0.00;;;;;;;2.94;81.07;98535.44;6115687;23;20063;-79
2022/02/08 07:18:42;;;;;;;0.00;0.00;;;;;;;2.88;81.84;98545.09;6115955;23;20091;-79
2022/02/08 07:21:08;;;;;;;0.00;0.00;;;;;;;2.90;81.64;98542.22;6116479;23;20046;-79
2022/02/08 07:23:34;;;;;;;0.00;0.00;;;;;;;2.82;82.04;98547.88;6116858;23;20058;-79
2022/02/08 07:26:00;;;;;;;0.00;0.00;;;;;;;2.80;82.10;98544.69;6117311;23;20026;-78
2022/02/08 07:28:26;;;;;;;0.00;0.00;;;;;;;2.75;82.16;98548.03;6245652;23;20354;-79
2022/02/08 07:30:59;;;;;;;0.10;0.10;;;;;;;2.73;82.21;98550.09;6116020;23;20000;-78
2022/02/08 07:33:25;;;;;;;0.00;0.00;;;;;;;2.70;83.00;98546.09;6246186;23;20022;-79
2022/02/08 07:36:21;;;;;;;0.00;0.00;;;;;;;2.71;82.83;98549.53;6218439;23;20008;-78
2022/02/08 07:38:40;;;;;;;0.00;0.00;;;;;;;2.67;83.37;98551.03;6244826;23;20039;-78
2022/02/08 07:43:32;;;;;;;0.00;0.00;;;;;;;2.73;83.17;98565.94;6251097;23;20063;-78
2022/02/08 07:45:57;;;;;;;0.00;0.00;;;;;;;2.80;82.50;98568.44;6222275;23;20318;-80
2022/02/08 07:48:24;;;;;;;0.00;0.00;;;;;;;2.83;82.92;98579.34;6222798;23;20070;-78
2022/02/08 07:50:51;;;;;;;0.00;0.00;;;;;;;2.86;82.76;98596.56;6221899;23;20004;-79
2022/02/08 07:53:18;;;;;;;0.00;0.00;;;;;;;2.93;82.27;98606.97;6224206;23;20343;-78
2022/02/08 07:55:44;;;;;;;0.00;0.00;;;;;;;2.96;82.72;98609.13;6224179;23;20345;-79
2022/02/08 07:58:10;;;;;;;0.25;0.25;;;;;;;2.87;82.56;98620.06;6222807;23;20008;-78
2022/02/08 08:00:36;;;;;;;0.00;0.00;;;;;;;2.84;82.54;98625.03;6223027;23;20011;-78
2022/02/08 08:03:04;;;;;;;0.00;0.00;;;;;;;2.84;82.74;98631.09;6223175;23;20011;-78
2022/02/08 08:05:31;;;;;;;0.00;0.00;;;;;;;2.81;82.59;98636.88;6223608;23;20008;-78
2022/02/08 08:07:56;;;;;;;0.00;0.00;;;;;;;2.80;83.31;98645.03;6249783;23;20000;-78
2022/02/08 08:10:27;;;;;;;0.00;0.00;;;;;;;2.81;82.96;98642.16;6223496;23;20019;-78
2022/02/08 08:12:54;;;;;;;0.00;0.00;;;;;;;2.78;83.05;98645.25;6223501;23;20004;-78
2022/02/08 08:15:39;;;;;;;0.00;0.00;;;;;;;2.81;83.30;98657.22;6224084;23;20015;-78
2022/02/08 08:18:19;;;;;;;0.20;0.20;;;;;;;2.86;83.01;98660.72;6223562;23;20004;-80
2022/02/08 08:20:45;;;;;;;0.00;0.00;;;;;;;2.84;83.00;98677.84;6220689;23;20000;-80
2022/02/08 08:23:10;;;;;;;0.00;0.00;;;;;;;2.82;83.27;98666.72;6223526;23;20012;-78
2022/02/08 08:25:36;;;;;;;0.00;0.00;;;;;;;2.88;83.11;98676.34;6222717;23;20015;-80
2022/02/08 08:28:02;;;;;;;0.00;0.00;;;;;;;2.87;83.03;98675.53;6222716;23;20004;-80
2022/02/08 08:30:28;;;;;;;0.00;0.00;;;;;;;2.91;82.57;98667.16;6223190;23;20095;-80
2022/02/08 08:32:53;;;;;;;0.00;0.00;;;;;;;2.92;82.93;98666.91;6222997;23;20008;-80
2022/02/08 08:35:23;;;;;;;0.00;0.00;;;;;;;2.93;82.63;98681.75;6222059;23;20035;-78
2022/02/08 08:37:51;;;;;;;0.00;0.00;;;;;;;2.95;82.59;98689.41;6248281;23;20007;-80
2022/02/08 08:40:23;;;;;;;0.00;0.00;;;;;;;2.93;82.25;98694.94;6223313;23;20027;-80
2022/02/08 08:43:23;;;;;;;0.00;0.00;;;;;;;2.91;82.35;98694.38;6221683;23;20004;-80
2022/02/08 08:51:17;;;;;;;0.03;0.03;;;;;;;2.92;82.81;98695.97;6249028;22;20008;-79
2022/02/08 08:53:44;;;;;;;0.00;0.00;;;;;;;2.95;82.56;98700.00;6245365;23;20007;-79
2022/02/08 08:56:09;;;;;;;0.00;0.00;;;;;;;2.94;82.65;98704.47;6219817;23;20004;-79
2022/02/08 08:58:36;;;;;;;0.00;0.00;;;;;;;2.97;82.76;98704.00;6221205;23;20012;-79
2022/02/08 09:01:03;;;;;;;0.10;0.10;;;;;;;3.01;82.53;98699.84;6222375;23;20008;-79
2022/02/08 09:03:29;;;;;;;0.00;0.00;;;;;;;3.09;81.46;98700.50;6224111;23;20011;-79
2022/02/08 09:05:54;;;;;;;0.22;0.22;;;;;;;3.06;81.54;98691.22;6224483;23;20035;-79
2022/02/08 09:08:22;;;;;;;0.00;0.00;;;;;;;3.09;81.79;98697.88;6224424;23;20032;-79
2022/02/08 09:10:56;;;;;;;0.00;0.00;;;;;;;3.17;80.99;98702.78;6224824;23;20011;-79
2022/02/08 09:13:35;;;;;;;0.00;0.00;;;;;;;3.18;81.14;98702.53;6224108;23;20008;-79
2022/02/08 09:16:08;;;;;;;0.00;0.00;;;;;;;3.19;80.93;98713.94;6222648;23;20015;-79
2022/02/08 09:29:38;;;;;;;0.10;0.10;;;;;;;3.27;80.01;98720.66;6250246;23;20007;-79
2022/02/08 09:32:14;;;;;;;0.00;0.00;;;;;;;3.32;79.81;98724.22;6223119;23;20004;-78
2022/02/08 09:34:41;;;;;;;0.00;0.00;;;;;;;3.33;79.43;98717.91;6222187;23;20035;-80
2022/02/08 09:37:09;;;;;;;0.00;0.00;;;;;;;3.39;79.71;98720.63;6219992;23;20086;-80
2022/02/08 09:39:34;;;;;;;0.00;0.00;;;;;;;3.41;79.22;98708.78;6222175;23;20000;-80
2022/02/08 09:42:02;;;;;;;0.00;0.00;;;;;;;3.44;78.65;98718.06;6220378;23;20011;-80
2022/02/08 09:44:33;;;;;;;0.00;0.00;;;;;;;3.45;79.74;98714.41;6223131;23;20068;-79
2022/02/08 09:47:07;;;;;;;0.00;0.00;;;;;;;3.51;79.35;98716.88;6224020;23;20018;-79
2022/02/08 09:49:33;;;;;;;0.13;0.13;;;;;;;3.55;78.87;98708.47;6220483;22;20004;-79
2022/02/08 09:52:00;;;;;;;0.00;0.00;;;;;;;3.58;78.19;98703.53;6220171;23;20012;-79
2022/02/08 09:54:26;;;;;;;0.00;0.00;;;;;;;3.63;77.46;98695.66;6221207;23;20012;-79
2022/02/08 09:56:52;;;;;;;0.00;0.00;;;;;;;3.71;77.16;98701.59;6220011;23;20066;-79
2022/02/08 09:59:17;;;;;;;0.03;0.03;;;;;;;3.75;77.03;98700.91;6195369;23;20004;-79
2022/02/08 10:01:57;;;;;;;0.00;0.00;;;;;;;3.82;77.46;98698.09;6223736;23;20448;-79
2022/02/08 10:04:23;;;;;;;0.00;0.00;;;;;;;3.86;77.81;98693.94;6223058;23;20453;-79
2022/02/08 10:06:49;;;;;;;0.00;0.00;;;;;;;3.92;76.78;98700.09;6222486;23;20441;-79
2022/02/08 10:09:14;;;;;;;0.35;0.35;;;;;;;3.94;74.17;98693.53;6220901;23;20000;-79
2022/02/08 10:11:49;;;;;;;0.00;0.00;;;;;;;4.02;73.98;98694.97;6220340;23;20008;-79
2022/02/08 10:22:35;;;;;;;0.00;0.00;;;;;;;4.36;74.75;98692.28;6245028;23;20011;-81
2022/02/08 10:25:07;;;;;;;0.00;0.00;;;;;;;4.41;74.38;98692.34;6218630;23;20043;-80
2022/02/08 10:27:49;;;;;;;0.00;0.00;;;;;;;4.58;74.58;98694.97;6218993;23;20038;-78
2022/02/08 10:38:22;;;;;;;0.00;0.00;;;;;;;5.12;69.21;98688.19;6246141;23;20030;-78
2022/02/08 10:40:47;;;;;;;0.13;0.13;;;;;;;5.23;67.48;98689.88;6244638;23;20004;-80
2022/02/08 10:43:18;;;;;;;0.00;0.00;;;;;;;5.23;67.47;98687.22;6218581;23;20400;-78
2022/02/08 10:45:45;;;;;;;0.00;0.00;;;;;;;5.35;66.63;98689.75;6217654;23;20445;-77
2022/02/08 10:48:21;;;;;;;0.10;0.10;;;;;;;5.44;66.88;98682.94;6218718;23;20008;-78
2022/02/08 10:50:52;;;;;;;0.00;0.00;;;;;;;5.43;66.82;98681.34;6217289;23;20004;-80
2022/02/08 10:53:20;;;;;;;0.00;0.00;;;;;;;5.54;66.89;98668.16;6217616;23;20008;-79
2022/02/08 10:56:04;;;;;;;0.00;0.00;;;;;;;5.61;67.16;98672.22;6245643;23;20031;-79
2022/02/08 10:58:38;;;;;;;0.35;0.35;;;;;;;5.70;66.76;98685.00;6219124;23;20047;-78
2022/02/08 11:01:09;;;;;;;0.00;0.00;;;;;;;5.84;65.39;98699.47;6219309;23;20004;-78
2022/02/08 11:06:23;;;;;;;0.00;0.00;;;;;;;5.88;64.46;98705.06;6245374;23;20345;-79
2022/02/08 11:25:32;;;;;;;0.00;0.00;;;;;;;6.35;59.45;98680.47;6244960;23;20038;-80
2022/02/08 11:28:33;;;;;;;0.00;0.00;;;;;;;6.29;59.17;98676.19;6218269;23;20008;-79
2022/02/08 11:45:37;;;;;;;0.00;0.00;;;;;;;6.40;56.33;98663.75;6243876;23;20070;-79
2022/02/08 12:07:05;;;;;;;0.00;0.00;;;;;;;6.64;55.00;98727.09;6246064;23;20014;-79
2022/02/08 13:05:37;;;;;;;0.00;0.00;;;;;;;6.50;51.74;98836.47;6246315;23;20066;-78
2022/02/08 14:02:19;;;;;;;0.00;0.00;;;;;;;6.69;51.89;98913.19;6247115;23;20043;-79
2022/02/08 14:07:35;;;;;;;0.00;0.00;;;;;;;6.62;51.69;98894.00;6246228;23;20460;-80
2022/02/08 14:10:19;;;;;;;0.00;0.00;;;;;;;6.61;51.17;98916.28;6220178;23;20012;-79
2022/02/08 14:16:05;;;;;;;0.00;0.00;;;;;;;6.60;51.59;98915.47;6164351;23;20136;-79
2022/02/08 14:30:07;;;;;;;0.50;0.50;;;;;;;6.51;52.82;98925.75;6123247;23;20052;-79
2022/02/08 15:00:10;;;;;;;0.00;0.00;;;;;;;6.50;52.40;98937.44;6217752;23;20012;-79
2022/02/08 15:08:11;;;;;;;0.00;0.00;;;;;;;6.45;51.60;98953.34;6217152;23;20357;-79
2022/02/08 15:10:42;;;;;;;2.03;0.65;;;;;;;6.41;51.52;98960.22;6215483;23;20008;-79
2022/02/08 15:13:10;;;;;;;0.00;0.00;;;;;;;6.44;52.22;98962.34;6191993;23;20001;-79
2022/02/08 15:18:03;;;;;;;0.22;0.22;;;;;;;6.36;52.58;98944.19;6220023;23;20005;-79
2022/02/08 15:20:29;;;;;;;0.00;0.00;;;;;;;6.37;52.40;98962.56;6219351;23;20052;-79
2022/02/08 15:23:00;;;;;;;0.00;0.00;;;;;;;6.35;51.32;98963.88;6191717;23;20005;-79
2022/02/08 15:25:27;;;;;;;0.00;0.00;;;;;;;6.36;52.04;98944.19;6217673;23;20000;-79
2022/02/08 15:27:53;;;;;;;0.08;0.08;;;;;;;6.35;51.04;98964.66;6191255;23;20009;-78
2022/02/08 15:30:19;;;;;;;0.17;0.17;;;;;;;6.38;51.50;98968.66;6188842;23;20013;-78
2022/02/08 15:32:46;;;;;;;0.00;0.00;;;;;;;6.37;51.17;98975.03;6188270;23;20064;-78
2022/02/08 15:35:11;;;;;;;0.08;0.08;;;;;;;6.35;50.55;98983.25;6187645;23;20020;-77
2022/02/08 15:37:37;;;;;;;0.10;0.10;;;;;;;6.37;50.00;98975.84;6191110;23;20015;-76
2022/02/08 15:40:07;;;;;;;0.00;0.00;;;;;;;6.34;48.71;98960.41;6188093;23;20087;-76
2022/02/08 15:42:38;;;;;;;0.00;0.00;;;;;;;6.34;48.91;98981.66;6187923;23;20456;-77
2022/02/08 15:46:09;;;;;;;0.00;0.00;;;;;;;6.39;48.46;98970.28;6215176;23;20437;-77
2022/02/08 15:48:00;;;;;;;0.05;0.05;;;;;;;6.39;47.29;98965.75;6193638;23;20008;-78
2022/02/08 15:50:53;;;;;;;0.00;0.00;;;;;;;6.36;46.93;98987.53;6214327;23;20008;-76
2022/02/08 16:01:39;;;;;;;0.05;0.05;;;;;;;6.35;47.11;99007.16;6215808;23;20008;-76
2022/02/08 16:10:02;;;;;;;0.00;0.00;;;;;;;6.36;46.09;99027.38;6214073;23;20012;-77
2022/02/08 16:57:14;;;;;;;0.00;0.00;;;;;;;5.99;46.26;99141.31;6213993;23;20078;-77
2022/02/08 16:59:42;;;;;;;0.13;0.13;;;;;;;5.95;45.99;99140.97;6187047;23;20009;-80
2022/02/08 17:02:08;;;;;;;0.00;0.00;;;;;;;5.90;46.23;99144.34;6188364;23;20105;-79
2022/02/08 17:04:35;;;;;;;0.20;0.20;;;;;;;5.90;46.84;99162.94;6215088;23;20474;-80
2022/02/08 17:07:01;;;;;;;0.28;0.28;;;;;;;5.91;46.49;99175.16;6188118;23;20004;-81
2022/02/08 17:09:44;;;;;;;0.00;0.00;;;;;;;5.88;46.76;99180.97;6189103;23;20008;-79
2022/02/08 17:12:22;;;;;;;0.00;0.00;;;;;;;5.86;47.28;99185.72;6213058;23;20005;-78
2022/02/08 17:47:02;;;;;;;0.25;0.25;;;;;;;5.32;48.81;99236.50;6247572;23;20043;-79
2022/02/08 17:49:28;;;;;;;0.47;0.47;;;;;;;5.29;48.47;99236.97;6218998;23;20008;-77
2022/02/08 17:51:54;;;;;;;0.00;0.00;;;;;;;5.29;48.53;99245.72;6245274;22;20455;-77
2022/02/08 17:54:19;;;;;;;0.00;0.00;;;;;;;5.26;47.94;99256.00;6245243;23;20008;-77
2022/02/08 17:56:46;;;;;;;0.00;0.00;;;;;;;5.25;48.00;99265.03;6249328;23;20053;-81
2022/02/08 18:02:00;;;;;;;0.00;0.00;;;;;;;5.30;48.72;99278.38;6280646;22;20020;-77
2022/02/08 18:04:26;;;;;;;0.00;0.00;;;;;;;5.29;49.26;99280.19;6253541;22;20042;-80
2022/02/08 18:06:52;;;;;;;0.00;0.00;;;;;;;5.28;49.86;99285.75;6247906;22;19999;-77
2022/02/08 18:09:20;;;;;;;0.85;0.75;;;;;;;5.25;49.53;99288.88;6270748;22;20074;-78
2022/02/08 18:11:46;;;;;;;0.10;0.10;;;;;;;5.24;49.27;99303.97;6246236;22;20401;-78
2022/02/08 18:14:16;;;;;;;0.00;0.00;;;;;;;5.23;49.66;99291.75;6274907;22;20095;-77
2022/02/08 18:16:42;;;;;;;0.00;0.00;;;;;;;5.20;49.50;99302.03;6247901;22;20003;-78
2022/02/08 18:19:15;;;;;;;0.00;0.00;;;;;;;5.17;49.18;99298.00;6275300;22;20004;-77
2022/02/08 18:22:08;;;;;;;0.00;0.00;;;;;;;5.15;49.07;99308.03;6275696;22;19999;-79
2022/02/08 18:58:05;;;;;;;0.00;0.00;;;;;;;4.60;52.46;99354.25;6245766;23;20357;-80
2022/02/08 19:11:49;;;;;;;0.00;0.00;;;;;;;4.43;52.85;99359.41;6152645;23;20084;-78
2022/02/08 19:22:08;;;;;;;0.00;0.00;;;;;;;4.30;52.55;99377.09;6245418;23;20007;-80
2022/02/08 19:24:34;;;;;;;0.00;0.00;;;;;;;4.26;52.17;99369.84;6218582;23;20095;-80
2022/02/08 19:27:00;;;;;;;0.20;0.20;;;;;;;4.29;52.34;99391.38;6217525;23;20004;-79
2022/02/08 19:29:30;;;;;;;0.00;0.00;;;;;;;4.32;52.74;99395.41;6220619;23;20000;-79
2022/02/08 19:32:00;;;;;;;0.00;0.00;;;;;;;4.32;51.69;99390.13;6217963;23;20083;-80
2022/02/08 19:34:25;;;;;;;0.88;0.88;;;;;;;4.30;51.89;99400.16;6194299;23;20007;-79
2022/02/08 19:36:53;;;;;;;0.43;0.43;;;;;;;4.27;52.32;99401.41;6245361;23;19996;-80
2022/02/08 19:39:47;;;;;;;0.38;0.38;;;;;;;4.28;52.31;99405.63;6217787;23;20086;-81
2022/02/08 19:45:41;;;;;;;0.00;0.00;;;;;;;4.22;52.00;99411.84;6245087;23;20015;-80
2022/02/08 19:48:07;;;;;;;0.03;0.03;;;;;;;4.22;51.79;99411.03;6216817;23;19996;-80
2022/02/08 19:50:36;;;;;;;0.00;0.00;;;;;;;4.21;51.40;99420.84;6216882;23;20000;-77
2022/02/08 19:53:02;;;;;;;0.00;0.00;;;;;;;4.22;51.28;99429.56;6242451;23;20024;-78
2022/02/08 19:57:57;;;;;;;0.00;0.00;;;;;;;4.11;51.18;99424.03;6243548;23;20345;-76
2022/02/08 20:00:29;;;;;;;0.00;0.00;;;;;;;4.12;51.30;99435.41;6243742;23;20012;-77
2022/02/08 20:02:57;;;;;;;0.00;0.00;;;;;;;4.08;51.17;99426.31;6216737;23;20059;-77
2022/02/08 20:05:28;;;;;;;1.35;1.25;;;;;;;4.05;51.39;99421.44;6216597;23;20015;-78
2022/02/08 20:07:54;;;;;;;0.00;0.00;;;;;;;4.03;50.91;99424.31;6216838;23;20012;-77
2022/02/08 20:10:20;;;;;;;0.10;0.10;;;;;;;4.01;50.29;99424.53;6241998;23;20091;-76
2022/02/08 20:12:45;;;;;;;0.00;0.00;;;;;;;3.96;48.16;99416.44;6243741;23;20031;-76
2022/02/08 20:15:11;;;;;;;0.00;0.00;;;;;;;4.05;48.41;99426.75;6244459;23;20342;-79
2022/02/08 20:17:37;;;;;;;0.00;0.00;;;;;;;4.07;48.27;99436.06;6217126;23;20078;-77
2022/02/08 20:20:09;;;;;;;0.68;0.68;;;;;;;4.12;48.26;99430.13;6217339;23;20030;-77
2022/02/08 20:22:35;;;;;;;0.00;0.00;;;;;;;4.13;48.29;99443.13;6244956;23;20031;-76
2022/02/08 20:25:04;;;;;;;0.25;0.20;;;;;;;4.16;48.87;99445.31;6244043;23;20074;-77
2022/02/08 20:29:57;;;;;;;0.00;0.00;;;;;;;4.11;49.70;99441.72;6243582;23;20019;-76
2022/02/08 20:32:22;;;;;;;0.00;0.00;;;;;;;4.14;49.22;99457.97;6244208;23;20000;-76
2022/02/08 20:34:48;;;;;;;0.00;0.00;;;;;;;4.11;49.05;99462.91;6243538;23;20004;-78
2022/02/08 20:37:13;;;;;;;0.00;0.00;;;;;;;4.06;49.37;99462.78;6244557;23;20004;-76
2022/02/08 20:39:39;;;;;;;0.00;0.00;;;;;;;4.10;49.38;99470.03;6244435;23;20330;-77
2022/02/08 20:42:09;;;;;;;0.00;0.00;;;;;;;4.11;49.60;99474.31;6242994;23;20008;-80
2022/02/08 20:44:38;;;;;;;0.00;0.00;;;;;;;4.09;49.92;99472.91;6217554;23;20019;-80
2022/02/08 20:47:18;;;;;;;0.00;0.00;;;;;;;4.05;49.57;99475.19;6217120;23;20010;-79
2022/02/08 20:49:45;;;;;;;0.00;0.00;;;;;;;4.06;49.98;99481.28;6217612;23;20353;-78
2022/02/08 20:52:11;;;;;;;0.00;0.00;;;;;;;4.04;50.11;99478.06;6245154;23;20035;-78
2022/02/08 20:54:39;;;;;;;0.00;0.00;;;;;;;3.97;50.69;99480.78;6217902;23;20034;-79
2022/02/08 20:57:11;;;;;;;0.00;0.00;;;;;;;3.95;51.48;99473.06;6218498;23;20047;-79
2022/02/08 20:59:37;;;;;;;0.00;0.00;;;;;;;3.93;51.10;99469.00;6217479;23;20004;-78
2022/02/08 21:02:03;;;;;;;0.00;0.00;;;;;;;3.89;51.41;99466.00;6245071;23;20014;-78